createdAt,value
2018-03-03T00:05:13.351Z,74.50
2018-03-03T00:07:41.974Z,74.30
2018-03-03T00:10:09.847Z,74.50
2018-03-03T00:12:37.775Z,74.20
2018-03-03T00:15:05.566Z,74.30
2018-03-03T00:17:36.428Z,74.40
2018-03-03T00:20:12.764Z,74.70
2018-03-03T00:22:48.460Z,74.80
2018-03-03T00:25:16.608Z,74.50
2018-03-03T00:27:44.484Z,74.80
2018-03-03T00:30:12.285Z,74.90
2018-03-03T00:32:40.015Z,74.70
2018-03-03T00:35:08.687Z,74.80
2018-03-03T00:37:37.146Z,74.80
2018-03-03T00:40:05.018Z,74.90
2018-03-03T00:42:33.767Z,75.00
2018-03-03T00:45:01.773Z,74.70
2018-03-03T00:47:29.768Z,74.50
2018-03-03T00:50:04.735Z,74.40
2018-03-03T00:52:32.476Z,74.30
2018-03-03T00:55:00.971Z,75.10
2018-03-03T00:57:29.707Z,74.90
2018-03-03T00:59:57.889Z,74.90
2018-03-03T01:02:29.639Z,74.90
2018-03-03T01:05:01.292Z,74.80
2018-03-03T01:07:29.197Z,75.10
2018-03-03T01:09:57.055Z,75.10
2018-03-03T01:12:24.771Z,75.30
2018-03-03T01:14:52.747Z,75.70
2018-03-03T01:17:24.370Z,75.50
2018-03-03T01:19:56.394Z,75.20
2018-03-03T01:22:39.996Z,75.30
2018-03-03T01:25:07.846Z,75.20
2018-03-03T01:27:35.542Z,75.20
2018-03-03T01:32:39.835Z,74.90
2018-03-03T01:35:07.589Z,74.70
2018-03-03T01:37:35.308Z,74.20
2018-03-03T01:43:02.973Z,74.20
2018-03-03T01:45:30.844Z,74.10
2018-03-03T01:47:59.150Z,74.00
2018-03-03T01:50:26.954Z,73.50
2018-03-03T01:52:54.709Z,73.10
2018-03-03T01:55:25.489Z,73.20
2018-03-03T01:57:53.176Z,73.50
2018-03-03T02:00:20.978Z,73.80
2018-03-03T02:02:53.545Z,73.70
2018-03-03T02:05:21.565Z,73.40
2018-03-03T02:07:50.296Z,73.30
2018-03-03T02:10:19.723Z,73.40
2018-03-03T02:12:47.669Z,73.50
2018-03-03T02:15:17.509Z,73.50
2018-03-03T02:17:47.198Z,73.50
2018-03-03T02:20:15.924Z,73.20
2018-03-03T02:22:43.670Z,73.30
2018-03-03T02:25:11.396Z,72.80
2018-03-03T02:27:39.147Z,73.50
2018-03-03T02:30:07.591Z,73.30
2018-03-03T02:32:36.343Z,73.40
2018-03-03T02:35:07.861Z,74.00
2018-03-03T02:37:45.062Z,73.00
2018-03-03T02:40:23.942Z,73.00
2018-03-03T02:43:01.034Z,72.80
2018-03-03T02:45:39.238Z,72.60
2018-03-03T02:48:15.228Z,73.00
2018-03-03T02:50:50.040Z,72.70
2018-03-03T02:58:43.658Z,73.10
2018-03-03T03:01:12.080Z,73.30
2018-03-03T03:03:40.521Z,73.30
2018-03-03T03:06:10.810Z,73.50
2018-03-03T03:08:38.680Z,73.30
2018-03-03T03:11:06.693Z,73.20
2018-03-03T03:13:35.820Z,73.50
2018-03-03T03:16:03.678Z,73.60
2018-03-03T03:18:32.020Z,73.60
2018-03-03T03:21:00.581Z,73.20
2018-03-03T03:23:28.547Z,73.20
2018-03-03T03:25:56.871Z,73.00
2018-03-03T03:28:25.731Z,73.10
2018-03-03T03:30:53.465Z,72.30
2018-03-03T03:33:21.827Z,72.30
2018-03-03T03:35:49.574Z,72.70
2018-03-03T03:40:55.478Z,72.70
2018-03-03T03:43:31.606Z,72.60
2018-03-03T03:46:00.038Z,72.50
2018-03-03T03:48:28.539Z,72.30
2018-03-03T03:50:56.381Z,72.70
2018-03-03T03:53:27.398Z,72.60
2018-03-03T03:55:56.069Z,72.50
2018-03-03T03:58:23.738Z,72.50
2018-03-03T04:00:52.250Z,72.70
2018-03-03T04:03:20.127Z,72.60
2018-03-03T04:05:53.490Z,72.50
2018-03-03T04:08:25.494Z,72.40
2018-03-03T04:11:01.725Z,72.20
2018-03-03T04:13:35.112Z,72.30
2018-03-03T04:16:03.584Z,72.40
2018-03-03T04:18:31.333Z,72.30
2018-03-03T04:20:59.122Z,72.20
2018-03-03T04:23:26.949Z,72.30
2018-03-03T04:25:54.972Z,72.10
2018-03-03T04:28:27.398Z,72.20
2018-03-03T04:30:55.864Z,72.20
2018-03-03T04:33:23.604Z,72.50
2018-03-03T04:35:52.065Z,72.50
2018-03-03T04:38:19.876Z,72.50
2018-03-03T04:40:47.573Z,72.20
2018-03-03T04:43:23.023Z,72.10
2018-03-03T04:45:50.829Z,72.00
2018-03-03T04:48:19.022Z,72.10
2018-03-03T04:50:46.884Z,72.30
2018-03-03T04:53:15.296Z,72.90
2018-03-03T04:55:43.200Z,72.20
2018-03-03T04:58:11.718Z,72.00
2018-03-03T05:00:41.119Z,72.00
2018-03-03T05:03:14.489Z,72.20
2018-03-03T05:08:44.885Z,71.90
2018-03-03T05:11:14.338Z,71.80
2018-03-03T05:13:43.059Z,71.60
2018-03-03T05:16:31.436Z,71.50
2018-03-03T05:19:10.782Z,71.70
2018-03-03T05:24:47.367Z,71.80
2018-03-03T05:27:21.709Z,71.70
2018-03-03T05:30:08.180Z,72.00
2018-03-03T05:35:42.177Z,71.80
2018-03-03T05:38:16.072Z,71.90
2018-03-03T05:43:47.354Z,72.20
2018-03-03T05:46:34.724Z,72.00
2018-03-03T05:49:22.560Z,71.60
2018-03-03T05:51:53.825Z,71.60
2018-03-03T05:54:28.318Z,71.60
2018-03-03T05:56:59.935Z,71.50
2018-03-03T06:02:50.283Z,71.70
2018-03-03T06:05:25.421Z,71.80
2018-03-03T06:10:53.271Z,71.80
2018-03-03T06:13:20.965Z,71.90
2018-03-03T06:15:48.815Z,72.00
2018-03-03T06:18:16.541Z,72.10
2018-03-03T06:20:44.262Z,71.80
2018-03-03T06:23:12.165Z,72.00
2018-03-03T06:25:39.991Z,71.80
2018-03-03T06:28:08.557Z,71.90
2018-03-03T06:30:36.352Z,71.90
2018-03-03T06:33:05.879Z,71.90
2018-03-03T06:35:33.660Z,71.90
2018-03-03T06:38:03.169Z,71.90
2018-03-03T06:40:30.890Z,71.60
2018-03-03T06:43:00.452Z,71.80
2018-03-03T06:45:28.181Z,71.80
2018-03-03T06:47:55.957Z,71.60
2018-03-03T06:50:23.709Z,71.90
2018-03-03T06:52:51.610Z,72.00
2018-03-03T06:55:22.899Z,71.80
2018-03-03T06:57:57.237Z,71.30
2018-03-03T07:00:26.696Z,71.30
2018-03-03T07:02:54.495Z,71.20
2018-03-03T07:05:22.199Z,71.10
2018-03-03T07:07:50.975Z,71.00
2018-03-03T07:10:18.739Z,70.80
2018-03-03T07:12:47.269Z,70.80
2018-03-03T07:15:17.048Z,70.80
2018-03-03T07:17:44.862Z,70.90
2018-03-03T07:20:15.082Z,70.60
2018-03-03T07:22:43.586Z,70.60
2018-03-03T07:25:11.406Z,70.60
2018-03-03T07:27:39.190Z,70.60
2018-03-03T07:30:07.069Z,70.10
2018-03-03T07:32:35.704Z,70.00
2018-03-03T07:35:03.627Z,70.00
2018-03-03T07:37:31.505Z,70.20
2018-03-03T07:40:00.278Z,70.60
2018-03-03T07:42:29.053Z,70.30
2018-03-03T07:44:56.741Z,70.90
2018-03-03T07:47:24.376Z,70.50
2018-03-03T07:49:52.169Z,70.10
2018-03-03T07:52:20.456Z,70.10
2018-03-03T07:54:48.206Z,70.40
2018-03-03T07:57:15.958Z,69.40
2018-03-03T07:59:43.624Z,69.80
2018-03-03T08:02:11.377Z,69.80
2018-03-03T08:04:42.105Z,69.40
2018-03-03T08:07:10.822Z,69.40
2018-03-03T08:09:38.594Z,68.90
2018-03-03T08:12:07.378Z,69.20
2018-03-03T08:14:35.755Z,69.50
2018-03-03T08:17:03.626Z,70.00
2018-03-03T08:19:31.337Z,69.30
2018-03-03T08:22:01.726Z,69.10
2018-03-03T08:24:30.408Z,69.30
2018-03-03T08:27:00.406Z,69.30
2018-03-03T08:32:10.319Z,69.00
2018-03-03T08:34:38.077Z,68.70
2018-03-03T08:37:06.671Z,68.90
2018-03-03T08:39:34.430Z,69.10
2018-03-03T08:42:02.342Z,68.80
2018-03-03T08:44:30.064Z,69.00
2018-03-03T08:46:57.774Z,69.20
2018-03-03T08:49:25.527Z,69.30
2018-03-03T08:51:53.372Z,69.00
2018-03-03T08:54:22.036Z,69.00
2018-03-03T08:56:50.849Z,69.60
2018-03-03T08:59:18.940Z,68.90
2018-03-03T09:01:46.899Z,68.50
2018-03-03T09:04:15.539Z,68.80
2018-03-03T09:06:43.236Z,69.00
2018-03-03T09:09:10.973Z,69.80
2018-03-03T09:11:39.831Z,68.90
2018-03-03T09:14:09.280Z,69.30
2018-03-03T09:16:37.013Z,69.20
2018-03-03T09:19:06.647Z,69.00
2018-03-03T09:21:34.614Z,69.40
2018-03-03T09:24:02.839Z,69.50
2018-03-03T09:26:31.512Z,69.50
2018-03-03T09:28:59.286Z,69.20
2018-03-03T09:31:27.902Z,68.80
2018-03-03T09:33:56.697Z,68.30
2018-03-03T09:36:24.477Z,68.40
2018-03-03T09:38:52.174Z,68.70
2018-03-03T09:41:19.961Z,68.20
2018-03-03T09:43:47.909Z,68.50
2018-03-03T09:46:15.968Z,68.80
2018-03-03T09:48:43.986Z,68.30
2018-03-03T09:51:29.711Z,68.40
2018-03-03T09:53:58.072Z,68.20
2018-03-03T09:56:29.710Z,66.80
2018-03-03T09:58:57.721Z,67.30
2018-03-03T10:01:26.366Z,66.80
2018-03-03T10:03:54.033Z,66.70
2018-03-03T10:06:23.786Z,66.60
2018-03-03T10:08:52.574Z,66.20
2018-03-03T10:11:20.619Z,66.30
2018-03-03T10:13:52.243Z,66.20
2018-03-03T10:16:22.852Z,66.40
2018-03-03T10:18:54.442Z,66.20
2018-03-03T10:21:22.976Z,66.60
2018-03-03T10:23:50.881Z,67.40
2018-03-03T10:26:19.446Z,68.30
2018-03-03T10:28:52.336Z,68.20
2018-03-03T10:31:21.025Z,68.20
2018-03-03T10:33:48.782Z,68.70
2018-03-03T10:36:19.567Z,69.10
2018-03-03T10:38:49.043Z,68.10
2018-03-03T10:41:16.998Z,68.00
2018-03-03T10:43:44.797Z,67.80
2018-03-03T10:46:12.560Z,67.30
2018-03-03T10:48:41.846Z,69.10
2018-03-03T10:51:09.535Z,69.00
2018-03-03T10:53:38.115Z,68.50
2018-03-03T10:56:05.883Z,68.30
2018-03-03T10:58:34.142Z,68.70
2018-03-03T11:01:03.254Z,68.20
2018-03-03T11:03:31.088Z,68.20
2018-03-03T11:05:59.505Z,68.60
2018-03-03T11:08:28.251Z,69.20
2018-03-03T11:10:56.970Z,69.00
2018-03-03T11:13:24.693Z,68.70
2018-03-03T11:15:53.349Z,68.20
2018-03-03T11:18:22.181Z,68.20
2018-03-03T11:20:51.758Z,67.90
2018-03-03T11:23:19.549Z,67.90
2018-03-03T11:25:47.524Z,67.90
2018-03-03T11:28:16.142Z,68.50
2018-03-03T11:30:43.973Z,68.20
2018-03-03T11:33:12.576Z,67.50
2018-03-03T11:35:41.441Z,67.40
2018-03-03T11:38:09.202Z,67.80
2018-03-03T11:40:37.771Z,67.60
2018-03-03T11:43:05.447Z,67.60
2018-03-03T11:45:33.253Z,67.90
2018-03-03T11:48:00.967Z,67.30
2018-03-03T11:50:28.639Z,67.90
2018-03-03T11:52:57.222Z,68.20
2018-03-03T11:55:28.103Z,67.90
2018-03-03T11:57:55.988Z,67.90
2018-03-03T12:00:23.862Z,67.90
2018-03-03T12:02:52.752Z,67.80
2018-03-03T12:05:20.759Z,67.70
2018-03-03T12:07:48.618Z,67.50
2018-03-03T12:10:16.903Z,68.40
2018-03-03T12:12:46.048Z,67.60
2018-03-03T12:15:17.097Z,67.60
2018-03-03T12:17:45.689Z,67.60
2018-03-03T12:20:13.368Z,67.60
2018-03-03T12:22:41.936Z,68.20
2018-03-03T12:25:09.604Z,68.10
2018-03-03T12:27:37.236Z,67.80
2018-03-03T12:30:05.092Z,68.20
2018-03-03T12:32:32.837Z,67.90
2018-03-03T12:35:01.244Z,68.00
2018-03-03T12:37:28.923Z,67.10
2018-03-03T12:39:57.227Z,67.00
2018-03-03T12:42:29.380Z,67.70
2018-03-03T12:44:57.370Z,67.60
2018-03-03T12:47:26.111Z,67.30
2018-03-03T12:49:53.876Z,67.20
2018-03-03T12:52:21.854Z,66.20
2018-03-03T12:54:49.781Z,66.80
2018-03-03T12:57:18.421Z,66.50
2018-03-03T12:59:54.057Z,66.50
2018-03-03T13:02:21.877Z,66.10
2018-03-03T13:04:50.457Z,65.60
2018-03-03T13:07:18.217Z,66.10
2018-03-03T13:09:46.757Z,66.00
2018-03-03T13:12:15.456Z,66.00
2018-03-03T13:14:43.139Z,66.40
2018-03-03T13:17:16.493Z,65.90
2018-03-03T13:19:44.185Z,65.30
2018-03-03T13:22:11.914Z,65.70
2018-03-03T13:24:39.578Z,65.00
2018-03-03T13:27:08.183Z,64.10
2018-03-03T13:29:35.857Z,63.60
2018-03-03T13:32:05.202Z,64.00
2018-03-03T13:34:33.696Z,64.50
2018-03-03T13:37:01.454Z,64.50
2018-03-03T13:39:30.137Z,62.80
2018-03-03T13:41:57.960Z,62.90
2018-03-03T13:44:26.013Z,63.80
2018-03-03T13:46:53.988Z,61.90
2018-03-03T13:49:22.555Z,61.90
2018-03-03T13:51:50.951Z,61.90
2018-03-03T13:54:18.678Z,60.60
2018-03-03T13:56:46.384Z,59.00
2018-03-03T13:59:15.751Z,61.20
2018-03-03T14:01:43.649Z,61.20
2018-03-03T14:04:13.140Z,61.30
2018-03-03T14:06:41.819Z,61.30
2018-03-03T14:09:09.638Z,60.30
2018-03-03T14:11:37.328Z,61.00
2018-03-03T14:16:53.133Z,60.50
2018-03-03T14:19:20.869Z,61.00
2018-03-03T14:21:48.702Z,61.40
2018-03-03T14:24:17.394Z,61.60
2018-03-03T14:26:45.200Z,62.20
2018-03-03T14:29:12.892Z,62.30
2018-03-03T14:31:40.622Z,62.30
2018-03-03T14:34:09.197Z,62.60
2018-03-03T14:36:36.941Z,61.90
2018-03-03T14:39:06.633Z,62.10
2018-03-03T14:41:41.619Z,62.50
2018-03-03T14:44:14.253Z,63.20
2018-03-03T14:46:48.404Z,61.90
2018-03-03T14:49:23.519Z,62.20
2018-03-03T14:51:54.459Z,62.70
2018-03-03T14:54:28.164Z,62.50
2018-03-03T14:57:01.489Z,62.20
2018-03-03T14:59:38.105Z,62.90
2018-03-03T15:02:14.624Z,62.00
2018-03-03T15:04:50.270Z,61.50
2018-03-03T15:07:19.861Z,61.60
2018-03-03T15:09:54.034Z,62.20
2018-03-03T15:12:30.885Z,62.50
2018-03-03T15:15:05.850Z,62.50
2018-03-03T15:17:41.598Z,62.20
2018-03-03T15:20:15.798Z,62.70
2018-03-03T15:22:49.625Z,62.50
2018-03-03T15:25:22.471Z,63.40
2018-03-03T15:27:53.266Z,63.00
2018-03-03T15:30:27.033Z,63.10
2018-03-03T15:32:56.635Z,63.10
2018-03-03T15:35:32.126Z,63.40
2018-03-03T15:38:05.763Z,63.40
2018-03-03T15:40:39.985Z,63.70
2018-03-03T15:43:17.069Z,64.00
2018-03-03T15:45:51.187Z,63.50
2018-03-03T15:48:26.459Z,63.00
2018-03-03T15:51:02.511Z,63.50
2018-03-03T15:53:35.966Z,63.70
2018-03-03T15:56:15.119Z,63.10
2018-03-03T15:58:49.177Z,63.90
2018-03-03T16:01:23.193Z,63.80
2018-03-03T16:03:54.531Z,63.70
2018-03-03T16:06:26.719Z,63.20
2018-03-03T16:08:57.383Z,62.90
2018-03-03T16:11:25.272Z,63.20
2018-03-03T16:13:53.359Z,64.20
2018-03-03T16:16:23.178Z,63.90
2018-03-03T16:18:51.274Z,63.80
2018-03-03T16:21:19.070Z,64.60
2018-03-03T16:23:47.610Z,65.30
2018-03-03T16:26:15.693Z,65.40
2018-03-03T16:28:43.393Z,65.50
2018-03-03T16:31:11.142Z,65.50
2018-03-03T16:33:39.653Z,65.90
2018-03-03T16:36:07.428Z,66.00
2018-03-03T16:38:35.073Z,66.10
2018-03-03T16:41:03.721Z,66.60
2018-03-03T16:43:31.413Z,66.50
2018-03-03T16:45:59.865Z,66.50
2018-03-03T16:48:27.545Z,66.80
2018-03-03T16:50:55.264Z,67.10
2018-03-03T16:53:24.646Z,68.10
2018-03-03T16:55:56.147Z,67.90
2018-03-03T16:58:25.017Z,68.20
2018-03-03T17:00:52.820Z,68.30
2018-03-03T17:03:20.670Z,67.80
2018-03-03T17:05:49.964Z,68.50
2018-03-03T17:08:17.629Z,68.50
2018-03-03T17:10:45.351Z,68.90
2018-03-03T17:13:14.837Z,68.90
2018-03-03T17:15:44.656Z,69.10
2018-03-03T17:18:12.443Z,69.20
2018-03-03T17:20:41.261Z,69.50
2018-03-03T17:23:09.090Z,69.40
2018-03-03T17:25:36.908Z,69.80
2018-03-03T17:28:04.703Z,69.90
2018-03-03T17:30:33.176Z,70.00
2018-03-03T17:33:00.981Z,70.00
2018-03-03T17:35:28.626Z,70.00
2018-03-03T17:37:56.670Z,69.60
2018-03-03T17:40:24.904Z,69.40
2018-03-03T17:42:52.794Z,69.30
2018-03-03T17:45:21.523Z,69.30
2018-03-03T17:47:49.168Z,69.20
2018-03-03T17:50:17.138Z,69.10
2018-03-03T17:52:45.713Z,69.20
2018-03-03T17:55:13.456Z,69.10
2018-03-03T17:57:42.193Z,69.70
2018-03-03T18:00:09.881Z,69.60
2018-03-03T18:02:37.664Z,69.50
2018-03-03T18:05:06.323Z,69.30
2018-03-03T18:07:34.753Z,70.50
2018-03-03T18:10:03.248Z,69.60
2018-03-03T18:12:30.940Z,69.60
2018-03-03T18:14:59.535Z,69.40
2018-03-03T18:17:29.316Z,69.40
2018-03-03T18:19:57.046Z,69.30
2018-03-03T18:22:26.292Z,68.60
2018-03-03T18:24:54.490Z,68.60
2018-03-03T18:29:58.664Z,69.30
2018-03-03T18:32:28.972Z,69.40
2018-03-03T18:34:58.752Z,69.40
2018-03-03T18:37:26.631Z,69.40
2018-03-03T18:39:55.252Z,69.10
2018-03-03T18:42:24.959Z,69.00
2018-03-03T18:44:52.733Z,68.90
2018-03-03T18:47:21.071Z,69.30
2018-03-03T18:49:48.874Z,69.80
2018-03-03T18:52:17.434Z,69.10
2018-03-03T18:54:52.474Z,68.90
2018-03-03T18:57:24.813Z,68.80
2018-03-03T18:59:54.508Z,68.80
2018-03-03T19:02:25.891Z,69.30
2018-03-03T19:04:56.109Z,68.60
2018-03-03T19:07:24.191Z,68.60
2018-03-03T19:09:54.308Z,68.70
2018-03-03T19:12:24.300Z,68.40
2018-03-03T19:14:53.748Z,69.00
2018-03-03T19:17:22.601Z,68.90
2018-03-03T19:19:53.044Z,68.90
2018-03-03T19:22:22.101Z,68.90
2018-03-03T19:24:52.736Z,69.50
2018-03-03T19:27:22.050Z,68.30
2018-03-03T19:32:41.720Z,68.60
2018-03-03T19:35:09.880Z,68.60
2018-03-03T19:37:38.341Z,68.60
2018-03-03T19:40:07.441Z,68.40
2018-03-03T19:42:37.661Z,68.60
2018-03-03T19:45:05.981Z,68.60
2018-03-03T19:47:34.941Z,68.60
2018-03-03T19:50:05.351Z,68.70
2018-03-03T19:52:34.441Z,68.70
2018-03-03T19:55:03.181Z,69.20
2018-03-03T19:57:31.741Z,69.10
2018-03-03T19:59:59.569Z,68.90
2018-03-03T20:02:27.524Z,68.90
2018-03-03T20:04:55.532Z,68.70
2018-03-03T20:07:25.189Z,68.70
2018-03-03T20:09:53.969Z,69.10
2018-03-03T20:12:21.873Z,69.30
2018-03-03T20:14:49.670Z,69.30
2018-03-03T20:17:23.120Z,69.30
2018-03-03T20:19:51.800Z,69.40
2018-03-03T20:22:19.630Z,69.30
2018-03-03T20:24:48.276Z,69.30
2018-03-03T20:27:21.767Z,69.40
2018-03-03T20:29:50.425Z,69.40
2018-03-03T20:35:13.405Z,69.70
2018-03-03T20:37:42.986Z,69.60
2018-03-03T20:40:12.913Z,69.40
2018-03-03T20:42:42.785Z,69.50
2018-03-03T20:45:14.099Z,69.40
2018-03-03T20:47:41.936Z,69.50
2018-03-03T20:50:10.537Z,69.50
2018-03-03T20:52:39.942Z,69.60
2018-03-03T20:55:07.863Z,69.60
2018-03-03T20:57:37.554Z,69.80
2018-03-03T21:00:05.446Z,69.60
2018-03-03T21:02:33.445Z,69.50
2018-03-03T21:05:01.135Z,69.50
2018-03-03T21:16:18.502Z,69.00
2018-03-03T21:18:47.086Z,69.50
2018-03-03T21:21:17.484Z,69.40
2018-03-03T21:23:45.938Z,69.40
2018-03-03T21:26:15.540Z,69.20
2018-03-03T21:28:45.168Z,69.10
2018-03-03T21:31:14.938Z,69.30
2018-03-03T21:33:42.853Z,69.20
2018-03-03T21:36:13.246Z,69.30
2018-03-03T21:38:41.035Z,69.60
2018-03-03T21:41:10.136Z,69.60
2018-03-03T21:43:37.960Z,69.30
2018-03-03T21:46:06.599Z,69.00
2018-03-03T21:48:36.104Z,69.30
2018-03-03T21:51:05.094Z,69.30
2018-03-03T21:53:32.942Z,69.30
2018-03-03T21:56:00.723Z,69.30
2018-03-03T21:58:28.468Z,69.30
2018-03-03T22:00:59.741Z,69.40
2018-03-03T22:03:27.697Z,69.00
2018-03-03T22:05:56.503Z,68.90
2018-03-03T22:08:26.153Z,69.10
2018-03-03T22:10:54.687Z,69.60
2018-03-03T22:13:24.359Z,69.40
2018-03-03T22:15:52.112Z,69.40
2018-03-03T22:18:24.645Z,69.40
2018-03-03T22:20:53.347Z,69.20
2018-03-03T22:23:21.054Z,69.20
2018-03-03T22:25:48.999Z,69.40
2018-03-03T22:28:19.554Z,69.00
2018-03-03T22:30:52.717Z,68.90
2018-03-03T22:33:21.236Z,68.70
2018-03-03T22:35:49.757Z,68.70
2018-03-03T22:38:18.720Z,69.00
2018-03-03T22:40:46.539Z,69.00
2018-03-03T22:43:14.372Z,69.10
2018-03-03T22:45:42.892Z,69.20
2018-03-03T22:48:13.390Z,69.20
2018-03-03T22:50:41.845Z,69.20
2018-03-03T22:53:11.626Z,69.50
2018-03-03T22:55:39.770Z,69.50
2018-03-03T22:58:08.374Z,69.50
2018-03-03T23:00:38.624Z,69.50
2018-03-03T23:03:06.491Z,69.80
2018-03-03T23:05:34.677Z,70.10
2018-03-03T23:08:04.069Z,70.60
2018-03-03T23:10:32.582Z,70.70
2018-03-03T23:13:00.432Z,71.00
2018-03-03T23:15:29.375Z,71.60
2018-03-03T23:17:57.992Z,72.10
2018-03-03T23:20:29.580Z,72.40
2018-03-03T23:22:58.630Z,72.30
2018-03-03T23:25:26.753Z,72.50
2018-03-03T23:27:55.351Z,73.10
2018-03-03T23:30:24.638Z,73.40
2018-03-03T23:32:52.523Z,73.70
2018-03-03T23:35:25.821Z,74.10
2018-03-03T23:37:54.054Z,74.70
2018-03-03T23:40:21.837Z,75.10
2018-03-03T23:42:49.942Z,75.10
2018-03-03T23:45:19.336Z,75.70
2018-03-03T23:47:47.893Z,76.30
2018-03-03T23:50:15.828Z,76.60
2018-03-03T23:52:47.041Z,76.70
2018-03-03T23:55:14.836Z,76.80
2018-03-03T23:57:42.502Z,76.80
